Time;durP1;ratioP1;P1;durP2;ratioP2;P2;SDS_P1;SDS_P2;PMS_P1;PMS_P2;Temp;Humidity;BMP_temperature;BMP_pressure;BME280_temperature;BME280_humidity;BME280_pressure;Samples;Min_cycle;Max_cycle;Signal;HPM_P1;HPM_P2
2023/08/09 00:01:38;;;;;;;0.40;0.40;;;10.90;99.90;;;;;;5013720;28;20044;-79
2023/08/09 00:04:04;;;;;;;0.40;0.40;;;10.80;99.90;;;;;;5033019;28;20036;-79
2023/08/09 00:06:30;;;;;;;0.30;0.30;;;10.90;99.90;;;;;;5044462;28;20135;-78
2023/08/09 00:08:56;;;;;;;0.40;0.40;;;10.90;99.90;;;;;;5038116;28;20449;-77
2023/08/09 00:11:21;;;;;;;0.40;0.40;;;10.80;99.90;;;;;;5030147;28;20096;-76
2023/08/09 00:13:47;;;;;;;0.40;0.40;;;10.80;99.90;;;;;;5013289;28;20433;-81
2023/08/09 00:16:14;;;;;;;;;;;10.70;99.90;;;;;;5046107;28;20143;-76
2023/08/09 00:18:43;;;;;;;0.40;0.40;;;10.70;99.90;;;;;;5053131;28;20543;-78
2023/08/09 00:21:10;;;;;;;0.40;0.40;;;10.70;99.90;;;;;;5019032;28;20052;-79
2023/08/09 00:23:36;;;;;;;0.60;0.60;;;10.80;99.90;;;;;;5047686;28;20032;-76
2023/08/09 00:44:06;;;;;;;0.40;0.40;;;11.00;99.90;;;;;;5081715;28;20081;-79
2023/08/09 00:46:32;;;;;;;0.30;0.30;;;11.10;99.90;;;;;;5050691;28;20493;-77
2023/08/09 00:49:04;;;;;;;0.30;0.30;;;11.10;99.90;;;;;;5069504;28;20052;-78
2023/08/09 00:51:30;;;;;;;0.38;0.38;;;11.10;99.90;;;;;;5036297;28;20116;-77
2023/08/09 00:53:56;;;;;;;;;;;11.10;99.90;;;;;;5046902;28;20044;-79
2023/08/09 00:56:23;;;;;;;0.40;0.40;;;11.10;99.90;;;;;;5062957;28;19971;-77
2023/08/09 00:58:48;;;;;;;0.43;0.43;;;10.80;99.90;;;;;;5054219;28;20036;-79
2023/08/09 01:01:14;;;;;;;0.50;0.50;;;11.20;99.90;;;;;;5054853;28;20438;-76
2023/08/09 01:03:40;;;;;;;0.30;0.30;;;11.20;99.90;;;;;;5049607;28;20047;-76
2023/08/09 01:06:18;;;;;;;0.40;0.40;;;11.30;99.90;;;;;;5068135;28;20040;-79
2023/08/09 01:09:23;;;;;;;0.30;0.30;;;11.80;99.90;;;;;;5091524;28;20043;-76
2023/08/09 01:12:02;;;;;;;0.50;0.50;;;11.30;99.90;;;;;;5069487;28;20101;-77
2023/08/09 01:14:30;;;;;;;0.35;0.35;;;11.30;99.90;;;;;;5049721;28;20122;-77
2023/08/09 01:16:59;;;;;;;0.32;0.32;;;11.20;99.90;;;;;;5046915;28;20044;-80
2023/08/09 01:19:34;;;;;;;0.32;0.32;;;11.30;99.90;;;;;;5049032;28;20055;-79
2023/08/09 01:22:06;;;;;;;0.68;0.68;;;11.30;99.90;;;;;;5063520;28;20032;-78
2023/08/09 01:24:33;;;;;;;0.77;0.77;;;11.30;99.90;;;;;;5064105;28;20040;-77
2023/08/09 01:26:59;;;;;;;0.40;0.40;;;11.20;99.90;;;;;;5049916;28;20043;-81
2023/08/09 01:29:25;;;;;;;0.43;0.43;;;11.20;99.90;;;;;;5046523;28;20052;-76
2023/08/09 01:31:51;;;;;;;0.43;0.43;;;11.20;99.90;;;;;;5035751;28;20089;-77
2023/08/09 01:34:18;;;;;;;0.30;0.30;;;11.30;99.90;;;;;;5060062;28;20390;-77
2023/08/09 01:36:50;;;;;;;0.40;0.40;;;11.30;99.90;;;;;;5046059;28;20394;-77
2023/08/09 01:39:22;;;;;;;0.47;0.47;;;11.40;99.90;;;;;;5067097;28;20131;-79
2023/08/09 01:41:50;;;;;;;0.40;0.40;;;11.30;99.90;;;;;;5054017;28;20553;-79
2023/08/09 01:44:18;;;;;;;0.40;0.40;;;11.30;99.90;;;;;;5034157;28;20052;-78
2023/08/09 01:46:44;;;;;;;0.30;0.30;;;11.30;99.90;;;;;;5054041;28;20063;-77
2023/08/09 01:49:22;;;;;;;0.40;0.40;;;11.30;99.90;;;;;;5016768;28;20067;-77
2023/08/09 01:51:48;;;;;;;0.30;0.30;;;11.30;99.90;;;;;;5030209;28;20059;-78
2023/08/09 01:54:14;;;;;;;0.73;0.73;;;11.40;99.90;;;;;;5057346;28;20132;-77
2023/08/09 01:56:42;;;;;;;0.40;0.40;;;11.30;99.90;;;;;;5053933;28;20059;-78
2023/08/09 01:59:09;;;;;;;0.30;0.30;;;11.30;99.90;;;;;;5017764;28;20538;-77
2023/08/09 02:01:36;;;;;;;0.30;0.30;;;11.30;99.90;;;;;;5034335;28;20358;-78
2023/08/09 02:04:05;;;;;;;0.30;0.30;;;11.20;99.90;;;;;;5035628;28;20119;-77
2023/08/09 02:06:32;;;;;;;0.30;0.30;;;11.20;99.90;;;;;;5029429;28;20053;-81
2023/08/09 02:08:59;;;;;;;0.30;0.30;;;11.20;99.90;;;;;;5021518;28;20133;-79
2023/08/09 02:11:29;;;;;;;0.40;0.40;;;11.20;99.90;;;;;;5051339;28;20107;-78
2023/08/09 02:13:55;;;;;;;0.40;0.40;;;11.20;99.90;;;;;;5016022;28;20482;-78
2023/08/09 02:16:20;;;;;;;0.40;0.40;;;11.10;99.90;;;;;;5048846;28;20048;-78
2023/08/09 02:18:46;;;;;;;0.30;0.30;;;11.10;99.90;;;;;;5033668;28;20409;-81
2023/08/09 02:21:12;;;;;;;0.30;0.30;;;11.10;99.90;;;;;;5054326;28;20040;-80
2023/08/09 02:23:44;;;;;;;0.40;0.40;;;11.00;99.90;;;;;;5033695;28;20044;-80
2023/08/09 02:26:10;;;;;;;0.40;0.40;;;11.00;99.90;;;;;;5033427;28;20053;-81
2023/08/09 02:28:35;;;;;;;0.40;0.40;;;10.90;99.90;;;;;;4998985;28;20366;-81
2023/08/09 02:31:01;;;;;;;0.40;0.40;;;10.90;99.90;;;;;;5017375;28;20752;-78
2023/08/09 02:33:27;;;;;;;;;;;10.80;99.90;;;;;;5031984;28;20131;-79
2023/08/09 02:35:56;;;;;;;0.40;0.40;;;10.70;99.90;;;;;;5035418;28;20340;-79
2023/08/09 02:38:23;;;;;;;0.35;0.35;;;10.70;99.90;;;;;;5043559;28;20040;-77
2023/08/09 02:40:51;;;;;;;0.40;0.40;;;10.60;99.90;;;;;;5020584;28;20050;-83
2023/08/09 02:43:18;;;;;;;0.40;0.40;;;10.60;99.90;;;;;;5057617;28;20497;-76
2023/08/09 02:45:46;;;;;;;0.40;0.40;;;10.60;99.90;;;;;;5029136;28;20040;-77
2023/08/09 02:48:12;;;;;;;0.40;0.40;;;10.60;99.90;;;;;;5037950;28;20059;-80
2023/08/09 02:50:39;;;;;;;0.40;0.40;;;10.50;99.90;;;;;;5057023;28;20071;-76
2023/08/09 02:53:05;;;;;;;0.47;0.47;;;10.40;99.90;;;;;;5046337;28;20450;-78
2023/08/09 02:55:31;;;;;;;0.40;0.40;;;10.40;99.90;;;;;;5034353;28;20076;-79
2023/08/09 02:58:03;;;;;;;0.47;0.47;;;10.40;99.90;;;;;;5083932;28;20481;-78
2023/08/09 03:00:29;;;;;;;0.50;0.50;;;10.40;99.90;;;;;;5070231;28;20077;-80
2023/08/09 03:02:55;;;;;;;0.52;0.52;;;10.30;99.90;;;;;;5044552;28;20111;-76
2023/08/09 03:05:21;;;;;;;0.40;0.40;;;10.30;99.90;;;;;;5053445;28;20118;-77
2023/08/09 03:07:46;;;;;;;0.50;0.50;;;10.30;99.90;;;;;;5053265;28;20455;-76
2023/08/09 03:10:12;;;;;;;0.40;0.40;;;10.30;99.90;;;;;;5053560;28;20374;-82
2023/08/09 03:12:38;;;;;;;0.40;0.40;;;10.20;99.90;;;;;;5046279;28;20043;-81
2023/08/09 03:15:05;;;;;;;0.65;0.65;;;10.20;99.90;;;;;;5057360;28;20040;-81
2023/08/09 03:17:31;;;;;;;0.40;0.40;;;10.30;99.90;;;;;;5056777;28;20043;-80
2023/08/09 03:19:57;;;;;;;0.47;0.47;;;10.30;99.90;;;;;;5070073;28;20067;-79
2023/08/09 03:22:28;;;;;;;0.40;0.40;;;10.30;99.90;;;;;;5057386;28;20047;-77
2023/08/09 03:24:54;;;;;;;0.40;0.40;;;10.40;99.90;;;;;;5048226;28;20377;-81
2023/08/09 03:27:20;;;;;;;1.35;1.35;;;10.40;99.90;;;;;;5017379;28;20123;-81
2023/08/09 03:29:46;;;;;;;;;;;10.40;99.90;;;;;;5053721;28;20040;-82
2023/08/09 03:32:15;;;;;;;0.63;0.60;;;10.50;99.90;;;;;;5067417;28;20369;-78
2023/08/09 03:34:40;;;;;;;0.57;0.57;;;10.50;99.90;;;;;;5041500;28;20044;-81
2023/08/09 03:37:06;;;;;;;1.10;0.73;;;10.50;99.90;;;;;;5052556;28;20166;-79
2023/08/09 03:39:32;;;;;;;0.50;0.50;;;10.50;99.90;;;;;;5029643;28;20039;-79
2023/08/09 03:41:57;;;;;;;0.47;0.47;;;10.50;99.90;;;;;;5022902;28;20043;-78
2023/08/09 03:44:24;;;;;;;0.50;0.50;;;10.50;99.90;;;;;;5054280;28;20056;-81
2023/08/09 03:46:50;;;;;;;0.43;0.43;;;10.50;99.90;;;;;;5056914;28;20402;-83
2023/08/09 03:49:18;;;;;;;0.50;0.50;;;10.50;99.90;;;;;;5047682;28;20047;-83
2023/08/09 03:51:44;;;;;;;0.40;0.40;;;10.40;99.90;;;;;;5028192;28;20040;-80
2023/08/09 03:54:10;;;;;;;0.32;0.32;;;10.30;99.90;;;;;;5067982;28;20033;-84
2023/08/09 03:56:36;;;;;;;0.50;0.50;;;10.30;99.90;;;;;;5029510;28;20032;-80
2023/08/09 03:59:02;;;;;;;0.40;0.40;;;10.30;99.90;;;;;;5069817;28;20032;-82
2023/08/09 04:01:27;;;;;;;0.50;0.50;;;10.30;99.90;;;;;;5052279;28;20367;-80
2023/08/09 04:03:53;;;;;;;0.52;0.52;;;10.20;99.90;;;;;;5047405;28;20058;-80
2023/08/09 04:06:19;;;;;;;0.40;0.40;;;10.20;99.90;;;;;;5032548;28;20055;-77
2023/08/09 04:08:46;;;;;;;;;;;10.20;99.90;;;;;;5056887;28;20390;-79
2023/08/09 04:11:13;;;;;;;0.40;0.40;;;10.20;99.90;;;;;;5039917;28;20003;-76
2023/08/09 04:13:38;;;;;;;0.50;0.50;;;10.20;99.90;;;;;;5033525;28;20405;-77
2023/08/09 04:16:05;;;;;;;0.43;0.43;;;10.30;99.90;;;;;;5067921;28;20045;-78
2023/08/09 04:18:31;;;;;;;0.43;0.43;;;10.30;99.90;;;;;;5050835;28;20037;-78
2023/08/09 04:20:57;;;;;;;0.40;0.40;;;10.40;99.90;;;;;;5021054;28;20045;-79
2023/08/09 04:23:23;;;;;;;0.40;0.40;;;10.40;99.90;;;;;;5064716;28;20036;-79
2023/08/09 04:25:48;;;;;;;0.40;0.40;;;10.30;99.90;;;;;;5032787;28;20049;-77
2023/08/09 04:28:17;;;;;;;0.93;0.93;;;10.30;99.90;;;;;;5028321;28;20523;-78
2023/08/09 04:30:43;;;;;;;0.40;0.40;;;10.30;99.90;;;;;;5067361;28;20092;-77
2023/08/09 04:33:10;;;;;;;0.40;0.40;;;10.30;99.90;;;;;;5040500;28;20105;-81
2023/08/09 04:35:36;;;;;;;0.50;0.50;;;10.40;99.90;;;;;;5034446;28;20466;-81
2023/08/09 04:38:04;;;;;;;0.50;0.50;;;10.40;99.90;;;;;;5016649;28;20040;-79
2023/08/09 04:40:32;;;;;;;0.50;0.50;;;10.50;99.90;;;;;;5056016;28;20078;-80
2023/08/09 04:42:58;;;;;;;0.40;0.40;;;10.50;99.90;;;;;;5043149;28;20135;-81
2023/08/09 04:45:24;;;;;;;0.50;0.50;;;10.50;99.90;;;;;;5025807;28;20115;-78
2023/08/09 04:47:52;;;;;;;0.50;0.50;;;10.40;99.90;;;;;;5050865;28;21795;-80
2023/08/09 04:50:20;;;;;;;0.40;0.40;;;10.40;99.90;;;;;;5065858;28;20083;-79
2023/08/09 04:52:46;;;;;;;0.63;0.52;;;10.40;99.90;;;;;;5065162;28;20047;-79
2023/08/09 04:55:14;;;;;;;0.50;0.50;;;10.50;99.90;;;;;;5079235;28;20504;-76
2023/08/09 04:57:41;;;;;;;0.30;0.30;;;10.60;99.90;;;;;;5051057;28;20075;-76
2023/08/09 05:00:08;;;;;;;0.40;0.40;;;10.60;99.90;;;;;;5066725;28;20048;-77
2023/08/09 05:02:36;;;;;;;0.40;0.40;;;10.70;99.90;;;;;;5058768;28;20066;-79
2023/08/09 05:05:04;;;;;;;0.40;0.40;;;10.80;99.90;;;;;;5042197;28;20456;-80
2023/08/09 05:07:31;;;;;;;0.43;0.43;;;10.80;99.90;;;;;;5070705;28;20048;-78
2023/08/09 05:09:57;;;;;;;0.30;0.30;;;10.90;99.90;;;;;;5047113;28;20150;-79
2023/08/09 05:12:23;;;;;;;0.52;0.52;;;11.00;99.90;;;;;;5074356;28;20185;-77
2023/08/09 05:14:48;;;;;;;0.35;0.35;;;11.00;99.90;;;;;;5035278;28;20040;-79
2023/08/09 05:17:14;;;;;;;0.57;0.57;;;11.10;99.90;;;;;;5062910;28;20110;-79
2023/08/09 05:19:41;;;;;;;0.30;0.30;;;11.30;99.90;;;;;;5066831;28;20045;-80
2023/08/09 05:22:07;;;;;;;0.20;0.20;;;11.40;99.90;;;;;;5038489;28;20041;-79
2023/08/09 05:24:33;;;;;;;0.30;0.30;;;11.60;99.90;;;;;;5053655;28;20047;-81
2023/08/09 05:26:58;;;;;;;0.30;0.30;;;11.70;99.90;;;;;;5051766;28;20374;-80
2023/08/09 05:29:25;;;;;;;2.13;0.57;;;11.80;99.90;;;;;;5066895;28;20036;-79
2023/08/09 05:31:51;;;;;;;0.45;0.45;;;11.80;99.90;;;;;;5069289;28;20037;-81
2023/08/09 05:34:18;;;;;;;0.35;0.35;;;11.90;99.90;;;;;;5058732;28;20043;-79
2023/08/09 05:36:44;;;;;;;0.40;0.40;;;12.10;99.90;;;;;;5069007;28;20040;-80
2023/08/09 05:39:10;;;;;;;;;;;12.20;99.90;;;;;;5042252;28;20071;-80
2023/08/09 05:41:36;;;;;;;0.30;0.30;;;12.20;99.90;;;;;;5049009;28;19924;-79
2023/08/09 05:44:02;;;;;;;0.50;0.50;;;12.30;99.90;;;;;;5043978;28;20516;-79
2023/08/09 05:46:28;;;;;;;0.50;0.50;;;12.40;99.90;;;;;;5075398;28;20115;-78
2023/08/09 05:49:09;;;;;;;0.40;0.40;;;12.50;99.90;;;;;;5048312;28;20048;-79
2023/08/09 05:51:35;;;;;;;2.72;0.90;;;12.60;99.90;;;;;;5046480;28;20122;-79
2023/08/09 05:54:01;;;;;;;0.40;0.40;;;12.70;99.90;;;;;;5051711;28;20077;-82
2023/08/09 05:56:33;;;;;;;0.30;0.30;;;12.70;99.90;;;;;;5065262;28;21805;-77
2023/08/09 05:58:59;;;;;;;0.60;0.60;;;12.80;99.90;;;;;;5054252;28;20040;-79
2023/08/09 06:01:25;;;;;;;0.40;0.40;;;12.90;99.90;;;;;;5037537;28;20043;-78
2023/08/09 06:03:50;;;;;;;0.32;0.32;;;13.00;99.90;;;;;;5058679;28;20394;-79
2023/08/09 06:06:16;;;;;;;0.30;0.30;;;13.20;99.90;;;;;;5038584;28;20055;-77
2023/08/09 06:08:46;;;;;;;0.32;0.32;;;13.20;99.90;;;;;;5086835;28;20040;-78
2023/08/09 06:11:13;;;;;;;0.40;0.40;;;13.30;99.90;;;;;;5035135;28;20123;-78
2023/08/09 06:13:40;;;;;;;0.28;0.28;;;13.40;99.90;;;;;;5085397;28;20048;-78
2023/08/09 06:16:06;;;;;;;0.20;0.20;;;13.50;99.90;;;;;;5052543;28;20037;-79
2023/08/09 06:18:37;;;;;;;6.97;1.08;;;13.70;99.90;;;;;;5053231;28;20427;-79
2023/08/09 06:21:04;;;;;;;0.57;0.40;;;14.00;99.90;;;;;;5050102;28;20049;-79
2023/08/09 06:23:30;;;;;;;0.40;0.40;;;13.70;99.90;;;;;;5037039;28;20493;-77
2023/08/09 06:25:59;;;;;;;0.32;0.32;;;13.90;99.90;;;;;;5072461;28;20051;-78
2023/08/09 06:28:24;;;;;;;0.50;0.50;;;14.00;99.90;;;;;;5066434;28;20040;-78
2023/08/09 06:30:50;;;;;;;0.40;0.40;;;14.10;99.90;;;;;;5072374;28;20410;-78
2023/08/09 06:33:18;;;;;;;0.40;0.40;;;14.10;99.90;;;;;;5065962;28;20142;-77
2023/08/09 06:35:43;;;;;;;0.38;0.38;;;14.10;99.90;;;;;;5041388;28;20056;-79
2023/08/09 06:38:10;;;;;;;0.22;0.22;;;14.40;99.90;;;;;;5019462;28;20051;-80
2023/08/09 06:40:36;;;;;;;0.30;0.30;;;14.50;99.90;;;;;;5055684;28;20040;-78
2023/08/09 06:43:02;;;;;;;0.52;0.52;;;;;;;;;;5053209;28;20551;-80
2023/08/09 06:45:30;;;;;;;;;;;14.50;99.90;;;;;;5039977;28;20056;-81
2023/08/09 06:47:56;;;;;;;0.40;0.40;;;14.70;99.90;;;;;;5060960;28;19986;-83
2023/08/09 06:50:23;;;;;;;3.40;0.68;;;15.00;99.90;;;;;;5041925;28;20047;-79
2023/08/09 06:52:49;;;;;;;0.40;0.40;;;14.90;99.90;;;;;;5084896;28;20048;-78
2023/08/09 06:55:17;;;;;;;0.25;0.25;;;;;;;;;;5058316;28;20051;-79
2023/08/09 06:57:42;;;;;;;0.52;0.52;;;15.30;99.90;;;;;;5063794;28;20101;-78
2023/08/09 07:00:16;;;;;;;0.32;0.32;;;;;;;;;;5025094;28;20094;-78
2023/08/09 07:02:46;;;;;;;0.38;0.38;;;15.40;99.90;;;;;;5050504;28;20061;-80
2023/08/09 07:05:20;;;;;;;0.40;0.40;;;15.30;99.90;;;;;;5067337;28;20153;-79
2023/08/09 07:07:48;;;;;;;0.30;0.30;;;15.60;99.90;;;;;;5041813;28;20036;-77
2023/08/09 07:10:15;;;;;;;0.30;0.30;;;15.70;99.90;;;;;;5056445;28;20127;-77
2023/08/09 07:12:41;;;;;;;1.00;1.00;;;15.90;99.90;;;;;;5052702;28;20166;-80
2023/08/09 07:15:08;;;;;;;0.30;0.30;;;16.00;99.90;;;;;;5045289;28;20082;-80
2023/08/09 07:17:39;;;;;;;0.30;0.30;;;16.00;99.90;;;;;;5034747;28;20062;-79
2023/08/09 07:20:12;;;;;;;0.43;0.43;;;;;;;;;;5079712;28;20032;-77
2023/08/09 07:22:39;;;;;;;0.50;0.50;;;16.10;99.90;;;;;;5066785;28;20047;-77
2023/08/09 07:25:07;;;;;;;0.30;0.30;;;16.30;99.90;;;;;;5035956;28;20086;-78
2023/08/09 07:27:34;;;;;;;0.30;0.30;;;16.50;99.90;;;;;;5030228;28;20097;-79
2023/08/09 07:29:59;;;;;;;0.32;0.32;;;16.40;99.90;;;;;;5063148;28;20063;-79
2023/08/09 07:32:26;;;;;;;0.30;0.30;;;16.50;99.90;;;;;;5054623;28;20036;-77
2023/08/09 07:34:52;;;;;;;0.47;0.47;;;16.60;99.90;;;;;;5047123;28;20050;-78
2023/08/09 07:37:20;;;;;;;;;;;16.60;99.90;;;;;;5054465;28;20043;-78
2023/08/09 07:39:45;;;;;;;0.30;0.30;;;16.80;99.90;;;;;;5063875;28;19999;-78
2023/08/09 07:42:11;;;;;;;0.30;0.30;;;16.90;99.90;;;;;;5067834;28;20115;-77
2023/08/09 07:44:38;;;;;;;0.50;0.50;;;;;;;;;;5047456;28;20135;-77
2023/08/09 07:47:04;;;;;;;0.35;0.35;;;16.70;99.90;;;;;;5059682;28;20495;-78
2023/08/09 07:49:35;;;;;;;0.22;0.22;;;16.90;99.90;;;;;;5046922;28;20048;-78
2023/08/09 07:52:01;;;;;;;0.45;0.45;;;17.00;99.90;;;;;;5062572;28;20127;-79
2023/08/09 07:54:27;;;;;;;0.30;0.30;;;17.10;99.90;;;;;;5068921;28;20541;-77
2023/08/09 07:56:53;;;;;;;0.20;0.20;;;17.20;99.90;;;;;;5046925;28;20071;-78
2023/08/09 07:59:19;;;;;;;0.50;0.50;;;17.30;99.90;;;;;;5069066;28;20093;-79
2023/08/09 08:01:46;;;;;;;;;;;17.30;99.90;;;;;;5049810;28;20492;-77
2023/08/09 08:04:12;;;;;;;0.35;0.32;;;17.40;99.90;;;;;;5030294;28;20007;-76
2023/08/09 08:06:38;;;;;;;;;;;17.40;99.90;;;;;;5048102;28;20549;-79
2023/08/09 08:09:04;;;;;;;0.30;0.30;;;17.60;99.90;;;;;;5043780;28;19917;-78
2023/08/09 08:11:31;;;;;;;0.20;0.20;;;17.60;99.90;;;;;;5068107;28;20127;-78
2023/08/09 08:13:57;;;;;;;0.50;0.50;;;17.60;99.90;;;;;;5056358;28;20037;-78
2023/08/09 08:16:23;;;;;;;1.40;1.23;;;17.60;99.90;;;;;;5070564;28;20063;-76
2023/08/09 08:18:49;;;;;;;0.32;0.32;;;17.70;99.90;;;;;;5057085;28;20523;-79
2023/08/09 08:21:15;;;;;;;;;;;17.70;99.90;;;;;;5033222;28;20094;-76
2023/08/09 08:23:41;;;;;;;0.30;0.30;;;17.80;99.90;;;;;;5039723;28;19927;-80
2023/08/09 08:26:07;;;;;;;;;;;17.90;99.90;;;;;;5050453;28;20160;-76
2023/08/09 08:28:32;;;;;;;0.50;0.40;;;18.10;99.90;;;;;;5030715;28;19924;-78
2023/08/09 08:31:04;;;;;;;0.40;0.40;;;18.30;99.90;;;;;;5046358;28;20494;-78
2023/08/09 08:33:30;;;;;;;0.30;0.30;;;18.40;99.90;;;;;;5045979;28;20059;-76
2023/08/09 08:35:56;;;;;;;;;;;18.50;99.90;;;;;;5045886;28;20045;-76
2023/08/09 08:38:23;;;;;;;0.30;0.30;;;18.60;99.90;;;;;;5046126;28;19925;-78
2023/08/09 08:40:48;;;;;;;0.40;0.40;;;18.70;99.90;;;;;;5064182;28;20089;-80
2023/08/09 08:43:14;;;;;;;;;;;18.80;99.90;;;;;;5050593;28;20045;-78
2023/08/09 08:45:47;;;;;;;0.45;0.45;;;18.80;99.90;;;;;;5072107;28;20400;-77
2023/08/09 08:48:13;;;;;;;0.20;0.20;;;18.70;99.90;;;;;;5038140;28;20504;-78
2023/08/09 08:50:41;;;;;;;0.65;0.50;;;18.60;99.90;;;;;;5061222;28;20049;-79
2023/08/09 08:53:08;;;;;;;0.30;0.30;;;18.60;99.90;;;;;;5049660;28;20056;-78
2023/08/09 08:55:34;;;;;;;0.20;0.20;;;18.80;99.90;;;;;;5065027;28;20402;-76
2023/08/09 08:58:00;;;;;;;0.43;0.43;;;19.00;99.90;;;;;;5054751;28;20043;-78
2023/08/09 09:00:36;;;;;;;0.30;0.30;;;19.20;99.90;;;;;;5073613;28;20051;-78
2023/08/09 09:03:02;;;;;;;0.30;0.30;;;19.30;99.90;;;;;;5055153;28;20037;-78
2023/08/09 09:05:28;;;;;;;3.53;1.20;;;19.30;99.90;;;;;;5024038;28;20040;-77
2023/08/09 09:07:56;;;;;;;;;;;19.30;99.90;;;;;;5051835;28;20037;-78
2023/08/09 09:10:23;;;;;;;0.35;0.35;;;19.20;99.90;;;;;;5056113;28;19916;-78
2023/08/09 09:12:53;;;;;;;0.30;0.30;;;19.30;99.90;;;;;;5045199;28;20051;-79
2023/08/09 09:15:19;;;;;;;0.30;0.30;;;19.20;99.90;;;;;;5079993;28;20058;-76
2023/08/09 09:17:48;;;;;;;;;;;19.20;99.90;;;;;;5059487;28;20044;-78
2023/08/09 09:20:23;;;;;;;0.28;0.28;;;19.40;99.90;;;;;;5046517;28;19928;-77
2023/08/09 09:22:51;;;;;;;0.20;0.20;;;19.70;99.90;;;;;;5029590;28;20135;-78
2023/08/09 09:25:17;;;;;;;0.28;0.28;;;20.00;99.90;;;;;;5045571;28;20045;-77
2023/08/09 09:27:50;;;;;;;0.20;0.20;;;20.20;99.90;;;;;;5070453;28;20053;-77
2023/08/09 09:30:19;;;;;;;0.20;0.20;;;20.20;99.90;;;;;;5052315;28;20048;-79
2023/08/09 09:32:51;;;;;;;0.30;0.30;;;20.00;99.90;;;;;;5061317;28;20052;-78
2023/08/09 09:35:28;;;;;;;0.30;0.30;;;19.60;99.90;;;;;;5069301;28;20110;-78
2023/08/09 09:37:55;;;;;;;0.30;0.30;;;19.30;99.90;;;;;;5066980;28;20409;-80
2023/08/09 09:40:42;;;;;;;0.30;0.30;;;19.10;99.90;;;;;;5071381;28;20420;-78
2023/08/09 09:43:15;;;;;;;0.20;0.20;;;19.00;99.90;;;;;;5042248;28;20130;-78
2023/08/09 09:45:43;;;;;;;0.30;0.30;;;19.20;99.90;;;;;;5045328;28;20452;-79
2023/08/09 09:48:20;;;;;;;0.30;0.30;;;19.50;99.90;;;;;;5061731;28;20106;-76
2023/08/09 09:50:48;;;;;;;0.30;0.30;;;19.70;99.90;;;;;;5068328;28;20147;-78
2023/08/09 09:53:17;;;;;;;0.43;0.43;;;19.60;99.90;;;;;;5051553;28;20112;-80
2023/08/09 09:55:49;;;;;;;0.30;0.30;;;19.40;99.90;;;;;;5051395;28;20055;-78
2023/08/09 09:58:22;;;;;;;0.20;0.20;;;19.40;99.90;;;;;;5064417;28;20086;-78
2023/08/09 10:00:53;;;;;;;0.30;0.30;;;19.20;99.90;;;;;;5071656;28;20036;-78
2023/08/09 10:03:25;;;;;;;0.20;0.20;;;19.00;99.90;;;;;;5075713;28;20075;-78
2023/08/09 10:05:51;;;;;;;0.25;0.25;;;19.10;99.90;;;;;;5047483;28;20076;-75
2023/08/09 10:08:20;;;;;;;0.30;0.30;;;19.20;99.90;;;;;;5065255;28;20076;-81
2023/08/09 10:10:49;;;;;;;0.22;0.22;;;19.50;99.90;;;;;;5075487;28;20127;-76
2023/08/09 10:13:20;;;;;;;0.30;0.30;;;19.80;99.90;;;;;;5056387;28;20374;-80
2023/08/09 10:15:57;;;;;;;0.22;0.22;;;20.00;99.90;;;;;;5067262;28;20438;-79
2023/08/09 10:18:23;;;;;;;;;;;20.20;99.90;;;;;;5050290;28;20048;-82
2023/08/09 10:20:55;;;;;;;0.20;0.20;;;20.40;99.90;;;;;;5069702;28;19943;-79
2023/08/09 10:23:26;;;;;;;0.30;0.30;;;20.50;99.90;;;;;;5067201;28;20496;-77
2023/08/09 10:25:54;;;;;;;0.30;0.30;;;20.60;99.90;;;;;;5048597;28;20044;-75
2023/08/09 10:28:58;;;;;;;0.55;0.50;;;20.60;99.90;;;;;;5043010;28;20040;-74
2023/08/09 10:32:02;;;;;;;0.77;0.77;;;20.50;99.90;;;;;;5066390;28;20036;-83
2023/08/09 10:34:40;;;;;;;0.20;0.20;;;20.50;99.90;;;;;;5025136;28;20045;-78
2023/08/09 10:37:07;;;;;;;0.20;0.20;;;20.20;99.90;;;;;;5051736;28;20048;-80
2023/08/09 10:39:34;;;;;;;0.25;0.25;;;20.10;99.90;;;;;;5044432;28;20386;-82
2023/08/09 10:42:08;;;;;;;0.75;0.75;;;20.00;99.90;;;;;;5048432;28;20142;-80
2023/08/09 10:44:36;;;;;;;0.20;0.20;;;20.40;99.90;;;;;;5029438;28;20036;-81
2023/08/09 10:47:06;;;;;;;0.20;0.20;;;20.70;99.90;;;;;;5037488;28;20064;-80
2023/08/09 10:49:55;;;;;;;0.52;0.52;;;20.90;99.90;;;;;;5034208;28;20872;-80
2023/08/09 10:52:28;;;;;;;0.20;0.20;;;21.00;99.90;;;;;;5014975;28;20098;-80
2023/08/09 10:55:20;;;;;;;0.30;0.30;;;20.80;99.20;;;;;;5019196;28;20048;-82
2023/08/09 10:57:48;;;;;;;0.30;0.30;;;20.40;99.10;;;;;;5042622;28;20362;-81
2023/08/09 11:00:15;;;;;;;0.40;0.40;;;20.40;99.90;;;;;;5029961;28;20128;-78
2023/08/09 11:02:50;;;;;;;0.50;0.50;;;20.50;99.90;;;;;;5033372;28;20123;-80
2023/08/09 11:05:19;;;;;;;0.40;0.40;;;20.50;99.70;;;;;;5030442;28;20041;-81
2023/08/09 11:07:51;;;;;;;0.30;0.30;;;20.50;99.80;;;;;;5040402;28;20093;-82
2023/08/09 11:10:35;;;;;;;2.60;0.50;;;20.50;99.50;;;;;;5026986;28;20047;-81
2023/08/09 11:13:13;;;;;;;0.95;0.95;;;20.30;98.70;;;;;;5041592;28;20057;-80
2023/08/09 11:15:47;;;;;;;0.20;0.20;;;20.10;99.10;;;;;;5030357;28;20160;-81
2023/08/09 11:18:14;;;;;;;0.43;0.43;;;20.30;99.30;;;;;;5033532;28;20049;-79
2023/08/09 11:20:41;;;;;;;1.48;1.17;;;20.50;99.10;;;;;;5028841;28;20024;-81
2023/08/09 11:23:07;;;;;;;0.30;0.30;;;20.50;99.50;;;;;;5030697;28;20086;-80
2023/08/09 11:25:34;;;;;;;0.30;0.30;;;20.70;99.10;;;;;;5034612;28;20048;-82
2023/08/09 11:28:03;;;;;;;0.35;0.35;;;20.80;98.60;;;;;;5044109;28;20154;-80
2023/08/09 11:30:31;;;;;;;0.30;0.30;;;20.80;99.50;;;;;;5026955;28;20067;-79
2023/08/09 11:33:04;;;;;;;0.40;0.40;;;20.80;98.90;;;;;;5012752;28;20044;-81
2023/08/09 11:35:30;;;;;;;0.20;0.20;;;20.50;98.90;;;;;;5033343;28;20083;-81
2023/08/09 11:37:56;;;;;;;0.32;0.32;;;20.40;99.00;;;;;;5034015;28;20052;-82
2023/08/09 11:40:24;;;;;;;1.17;0.93;;;20.40;99.20;;;;;;5019377;28;20040;-82
2023/08/09 11:42:57;;;;;;;0.20;0.20;;;20.50;99.70;;;;;;5015126;28;20040;-81
2023/08/09 11:45:24;;;;;;;0.30;0.30;;;20.50;99.70;;;;;;5036148;28;20117;-79
2023/08/09 11:47:54;;;;;;;0.20;0.20;;;20.40;99.90;;;;;;5066115;28;20115;-82
2023/08/09 11:50:24;;;;;;;0.30;0.30;;;20.20;99.90;;;;;;5060037;28;20040;-79
2023/08/09 11:52:54;;;;;;;0.20;0.20;;;20.10;99.90;;;;;;5053653;28;20039;-81
2023/08/09 11:55:21;;;;;;;0.30;0.30;;;20.00;99.90;;;;;;5031729;28;20049;-81
2023/08/09 11:57:48;;;;;;;0.30;0.30;;;20.10;99.90;;;;;;5023961;28;20082;-82
2023/08/09 12:00:15;;;;;;;0.20;0.20;;;20.40;99.90;;;;;;5067567;28;20056;-80
2023/08/09 12:02:41;;;;;;;0.95;0.52;;;20.30;99.90;;;;;;5050644;28;20123;-81
2023/08/09 12:05:14;;;;;;;0.40;0.40;;;20.00;99.90;;;;;;5054597;28;20112;-80
2023/08/09 12:07:42;;;;;;;0.30;0.30;;;19.80;99.90;;;;;;5060162;28;20322;-82
2023/08/09 12:10:18;;;;;;;0.50;0.50;;;19.80;99.90;;;;;;5022173;28;20040;-79
2023/08/09 12:12:44;;;;;;;0.30;0.30;;;19.70;99.90;;;;;;5077049;28;20048;-80
2023/08/09 12:15:10;;;;;;;0.47;0.47;;;19.70;99.40;;;;;;5075171;28;20048;-81
2023/08/09 12:17:36;;;;;;;0.22;0.22;;;19.70;99.50;;;;;;5061923;28;20497;-81
2023/08/09 12:20:04;;;;;;;;;;;19.80;99.70;;;;;;5057615;28;20064;-82
2023/08/09 12:22:31;;;;;;;0.30;0.30;;;19.90;99.20;;;;;;5054075;28;19974;-79
2023/08/09 12:24:58;;;;;;;0.28;0.28;;;19.90;99.20;;;;;;5052575;28;20067;-81
2023/08/09 12:27:25;;;;;;;0.52;0.52;;;20.00;99.20;;;;;;5055184;28;20075;-80
2023/08/09 12:29:52;;;;;;;0.22;0.22;;;20.10;98.80;;;;;;5047689;28;20564;-80
2023/08/09 12:32:19;;;;;;;0.20;0.20;;;20.20;99.10;;;;;;5053082;28;20040;-80
2023/08/09 12:34:47;;;;;;;0.50;0.50;;;20.30;99.80;;;;;;5051806;28;20874;-82
2023/08/09 12:37:13;;;;;;;0.30;0.30;;;20.50;99.90;;;;;;5057133;28;20093;-81
2023/08/09 12:39:44;;;;;;;0.20;0.20;;;20.50;99.90;;;;;;5060033;28;20036;-81
2023/08/09 12:42:11;;;;;;;0.30;0.30;;;20.40;99.90;;;;;;5038539;28;20048;-82
2023/08/09 12:44:37;;;;;;;0.30;0.30;;;20.30;99.90;;;;;;5053553;28;20040;-82
2023/08/09 12:47:06;;;;;;;0.30;0.30;;;20.30;99.70;;;;;;5070834;28;20052;-80
2023/08/09 12:49:34;;;;;;;0.57;0.55;;;20.30;98.90;;;;;;5041907;28;20054;-80
2023/08/09 12:51:59;;;;;;;0.25;0.25;;;20.20;98.80;;;;;;5056643;28;20426;-82
2023/08/09 12:54:25;;;;;;;0.20;0.20;;;20.20;99.00;;;;;;5031874;28;20067;-83
2023/08/09 12:56:52;;;;;;;;;;;20.50;99.40;;;;;;5040685;28;20108;-81
2023/08/09 12:59:18;;;;;;;0.40;0.40;;;20.90;99.30;;;;;;5065744;28;20273;-81
2023/08/09 13:01:43;;;;;;;6.93;0.68;;;21.60;98.10;;;;;;5050444;28;20043;-79
2023/08/09 13:04:09;;;;;;;0.30;0.30;;;21.80;96.50;;;;;;5040924;28;20050;-80
2023/08/09 13:06:35;;;;;;;0.50;0.50;;;21.80;96.50;;;;;;5077574;28;20047;-82
2023/08/09 13:09:01;;;;;;;0.20;0.20;;;21.70;96.80;;;;;;5073525;28;20642;-82
2023/08/09 13:11:27;;;;;;;0.20;0.20;;;21.50;96.90;;;;;;5078404;28;20031;-79
2023/08/09 13:13:52;;;;;;;0.40;0.40;;;21.60;98.00;;;;;;5058377;28;20048;-81
2023/08/09 13:16:18;;;;;;;0.25;0.25;;;21.60;99.60;;;;;;5052470;28;20058;-80